sensor_id;sensor_type;location;lat;lon;timestamp;temperature;humidity
32839;DHT22;19182;41.820;12.808;2023-11-19T00:00:16;5.20;99.90
32839;DHT22;19182;41.820;12.808;2023-11-19T00:02:44;5.20;99.90
32839;DHT22;19182;41.820;12.808;2023-11-19T00:05:10;5.20;99.90
32839;DHT22;19182;41.820;12.808;2023-11-19T00:07:37;5.10;99.90
32839;DHT22;19182;41.820;12.808;2023-11-19T00:10:07;5.20;99.90
32839;DHT22;19182;41.820;12.808;2023-11-19T00:12:35;5.20;99.90
32839;DHT22;19182;41.820;12.808;2023-11-19T00:15:01;5.20;99.90
32839;DHT22;19182;41.820;12.808;2023-11-19T00:17:26;5.20;99.90
32839;DHT22;19182;41.820;12.808;2023-11-19T00:19:55;5.00;99.90
32839;DHT22;19182;41.820;12.808;2023-11-19T00:22:22;5.00;99.90
32839;DHT22;19182;41.820;12.808;2023-11-19T00:24:50;5.10;99.90
32839;DHT22;19182;41.820;12.808;2023-11-19T00:27:16;5.20;99.90
32839;DHT22;19182;41.820;12.808;2023-11-19T00:29:41;5.10;99.90
32839;DHT22;19182;41.820;12.808;2023-11-19T00:32:07;5.00;99.90
32839;DHT22;19182;41.820;12.808;2023-11-19T00:34:33;5.00;99.90
32839;DHT22;19182;41.820;12.808;2023-11-19T00:36:58;5.00;99.90
32839;DHT22;19182;41.820;12.808;2023-11-19T00:39:24;5.00;99.90
32839;DHT22;19182;41.820;12.808;2023-11-19T00:41:51;4.90;99.90
32839;DHT22;19182;41.820;12.808;2023-11-19T00:44:17;4.90;99.90
32839;DHT22;19182;41.820;12.808;2023-11-19T00:46:45;5.00;99.90
32839;DHT22;19182;41.820;12.808;2023-11-19T00:49:11;5.00;99.90
32839;DHT22;19182;41.820;12.808;2023-11-19T00:51:37;4.90;99.90
32839;DHT22;19182;41.820;12.808;2023-11-19T00:54:04;4.90;99.90
32839;DHT22;19182;41.820;12.808;2023-11-19T00:56:30;4.90;99.90
32839;DHT22;19182;41.820;12.808;2023-11-19T00:58:56;4.90;99.90
32839;DHT22;19182;41.820;12.808;2023-11-19T01:01:22;4.90;99.90
32839;DHT22;19182;41.820;12.808;2023-11-19T01:03:48;5.10;99.90
32839;DHT22;19182;41.820;12.808;2023-11-19T01:06:26;5.00;99.90
32839;DHT22;19182;41.820;12.808;2023-11-19T01:08:51;4.90;99.90
32839;DHT22;19182;41.820;12.808;2023-11-19T01:11:20;4.90;99.90
32839;DHT22;19182;41.820;12.808;2023-11-19T01:13:46;5.00;99.90
32839;DHT22;19182;41.820;12.808;2023-11-19T01:16:12;5.10;99.90
32839;DHT22;19182;41.820;12.808;2023-11-19T01:18:38;5.10;99.90
32839;DHT22;19182;41.820;12.808;2023-11-19T01:21:04;5.20;99.90
32839;DHT22;19182;41.820;12.808;2023-11-19T01:23:30;5.20;99.90
32839;DHT22;19182;41.820;12.808;2023-11-19T01:25:56;5.10;99.90
32839;DHT22;19182;41.820;12.808;2023-11-19T01:28:22;5.10;99.90
32839;DHT22;19182;41.820;12.808;2023-11-19T01:30:52;5.20;99.90
32839;DHT22;19182;41.820;12.808;2023-11-19T01:33:18;5.20;99.90
32839;DHT22;19182;41.820;12.808;2023-11-19T01:35:44;5.20;99.90
32839;DHT22;19182;41.820;12.808;2023-11-19T01:38:09;5.00;99.90
32839;DHT22;19182;41.820;12.808;2023-11-19T01:40:36;4.90;99.90
32839;DHT22;19182;41.820;12.808;2023-11-19T01:43:02;4.90;99.90
32839;DHT22;19182;41.820;12.808;2023-11-19T01:45:28;5.00;99.90
32839;DHT22;19182;41.820;12.808;2023-11-19T01:47:54;5.00;99.90
32839;DHT22;19182;41.820;12.808;2023-11-19T01:50:21;4.90;99.90
32839;DHT22;19182;41.820;12.808;2023-11-19T01:52:48;4.90;99.90
32839;DHT22;19182;41.820;12.808;2023-11-19T01:55:13;4.90;99.90
32839;DHT22;19182;41.820;12.808;2023-11-19T01:57:39;4.90;99.90
32839;DHT22;19182;41.820;12.808;2023-11-19T02:00:07;4.90;99.90
32839;DHT22;19182;41.820;12.808;2023-11-19T02:02:37;4.90;99.90
32839;DHT22;19182;41.820;12.808;2023-11-19T02:05:05;4.90;99.90
32839;DHT22;19182;41.820;12.808;2023-11-19T02:07:31;4.90;99.90
32839;DHT22;19182;41.820;12.808;2023-11-19T02:09:57;5.00;99.90
32839;DHT22;19182;41.820;12.808;2023-11-19T02:12:26;5.10;99.90
32839;DHT22;19182;41.820;12.808;2023-11-19T02:14:59;5.10;99.90
32839;DHT22;19182;41.820;12.808;2023-11-19T02:17:27;5.20;99.90
32839;DHT22;19182;41.820;12.808;2023-11-19T02:19:54;5.10;99.90
32839;DHT22;19182;41.820;12.808;2023-11-19T02:22:19;5.20;99.90
32839;DHT22;19182;41.820;12.808;2023-11-19T02:24:45;5.20;99.90
32839;DHT22;19182;41.820;12.808;2023-11-19T02:27:25;5.20;99.90
32839;DHT22;19182;41.820;12.808;2023-11-19T02:29:54;5.10;99.90
32839;DHT22;19182;41.820;12.808;2023-11-19T02:32:20;5.10;99.90
32839;DHT22;19182;41.820;12.808;2023-11-19T02:34:46;5.30;99.90
32839;DHT22;19182;41.820;12.808;2023-11-19T02:37:11;5.20;99.90
32839;DHT22;19182;41.820;12.808;2023-11-19T02:39:37;5.20;99.90
32839;DHT22;19182;41.820;12.808;2023-11-19T02:42:03;5.20;99.90
32839;DHT22;19182;41.820;12.808;2023-11-19T02:44:28;5.20;99.90
32839;DHT22;19182;41.820;12.808;2023-11-19T02:46:58;5.20;99.90
32839;DHT22;19182;41.820;12.808;2023-11-19T02:49:25;5.20;99.90
32839;DHT22;19182;41.820;12.808;2023-11-19T02:51:51;5.10;99.90
32839;DHT22;19182;41.820;12.808;2023-11-19T02:54:17;5.10;99.90
32839;DHT22;19182;41.820;12.808;2023-11-19T02:56:43;5.00;99.90
32839;DHT22;19182;41.820;12.808;2023-11-19T02:59:09;5.00;99.90
32839;DHT22;19182;41.820;12.808;2023-11-19T03:01:39;5.00;99.90
32839;DHT22;19182;41.820;12.808;2023-11-19T03:04:09;5.10;99.90
32839;DHT22;19182;41.820;12.808;2023-11-19T03:06:37;5.10;99.90
32839;DHT22;19182;41.820;12.808;2023-11-19T03:09:03;5.00;99.90
32839;DHT22;19182;41.820;12.808;2023-11-19T03:11:35;5.10;99.90
32839;DHT22;19182;41.820;12.808;2023-11-19T03:14:01;5.00;99.90
32839;DHT22;19182;41.820;12.808;2023-11-19T03:16:28;4.90;99.90
32839;DHT22;19182;41.820;12.808;2023-11-19T03:18:54;5.00;99.90
32839;DHT22;19182;41.820;12.808;2023-11-19T03:21:27;4.80;99.90
32839;DHT22;19182;41.820;12.808;2023-11-19T03:23:53;4.80;99.90
32839;DHT22;19182;41.820;12.808;2023-11-19T03:26:19;4.70;99.90
32839;DHT22;19182;41.820;12.808;2023-11-19T03:28:45;4.70;99.90
32839;DHT22;19182;41.820;12.808;2023-11-19T03:31:11;4.70;99.90
32839;DHT22;19182;41.820;12.808;2023-11-19T03:33:37;4.80;99.90
32839;DHT22;19182;41.820;12.808;2023-11-19T03:36:03;4.80;99.90
32839;DHT22;19182;41.820;12.808;2023-11-19T03:38:29;4.70;99.90
32839;DHT22;19182;41.820;12.808;2023-11-19T03:40:55;4.80;99.90
32839;DHT22;19182;41.820;12.808;2023-11-19T03:43:24;4.70;99.90
32839;DHT22;19182;41.820;12.808;2023-11-19T03:45:50;4.80;99.90
32839;DHT22;19182;41.820;12.808;2023-11-19T03:48:16;4.80;99.90
32839;DHT22;19182;41.820;12.808;2023-11-19T03:50:42;4.80;99.90
32839;DHT22;19182;41.820;12.808;2023-11-19T03:53:08;4.80;99.90
32839;DHT22;19182;41.820;12.808;2023-11-19T03:55:34;4.80;99.90
32839;DHT22;19182;41.820;12.808;2023-11-19T03:58:00;4.70;99.90
32839;DHT22;19182;41.820;12.808;2023-11-19T04:00:26;4.60;99.90
32839;DHT22;19182;41.820;12.808;2023-11-19T04:02:53;4.60;99.90
32839;DHT22;19182;41.820;12.808;2023-11-19T04:05:19;4.70;99.90
32839;DHT22;19182;41.820;12.808;2023-11-19T04:07:44;4.60;99.90
32839;DHT22;19182;41.820;12.808;2023-11-19T04:10:10;4.60;99.90
32839;DHT22;19182;41.820;12.808;2023-11-19T04:12:36;4.60;99.90
32839;DHT22;19182;41.820;12.808;2023-11-19T04:15:02;4.60;99.90
32839;DHT22;19182;41.820;12.808;2023-11-19T04:17:30;4.60;99.90
32839;DHT22;19182;41.820;12.808;2023-11-19T04:19:57;4.60;99.90
32839;DHT22;19182;41.820;12.808;2023-11-19T04:22:23;4.60;99.90
32839;DHT22;19182;41.820;12.808;2023-11-19T04:24:49;4.60;99.90
32839;DHT22;19182;41.820;12.808;2023-11-19T04:27:14;4.50;99.90
32839;DHT22;19182;41.820;12.808;2023-11-19T04:29:40;4.50;99.90
32839;DHT22;19182;41.820;12.808;2023-11-19T04:32:06;4.60;99.90
32839;DHT22;19182;41.820;12.808;2023-11-19T04:34:32;4.60;99.90
32839;DHT22;19182;41.820;12.808;2023-11-19T04:36:58;4.60;99.90
32839;DHT22;19182;41.820;12.808;2023-11-19T04:39:27;4.70;99.90
32839;DHT22;19182;41.820;12.808;2023-11-19T04:41:53;4.70;99.90
32839;DHT22;19182;41.820;12.808;2023-11-19T04:44:19;4.70;99.90
32839;DHT22;19182;41.820;12.808;2023-11-19T04:46:45;4.60;99.90
32839;DHT22;19182;41.820;12.808;2023-11-19T04:49:11;2.20;99.90
32839;DHT22;19182;41.820;12.808;2023-11-19T04:51:38;4.60;99.90
32839;DHT22;19182;41.820;12.808;2023-11-19T04:54:07;4.70;99.90
32839;DHT22;19182;41.820;12.808;2023-11-19T04:56:34;4.60;99.90
32839;DHT22;19182;41.820;12.808;2023-11-19T04:59:01;4.70;99.90
32839;DHT22;19182;41.820;12.808;2023-11-19T05:01:27;4.80;99.90
32839;DHT22;19182;41.820;12.808;2023-11-19T05:03:53;4.70;99.90
32839;DHT22;19182;41.820;12.808;2023-11-19T05:06:19;4.70;99.90
32839;DHT22;19182;41.820;12.808;2023-11-19T05:08:45;4.70;99.90
32839;DHT22;19182;41.820;12.808;2023-11-19T05:11:11;4.70;99.90
32839;DHT22;19182;41.820;12.808;2023-11-19T05:13:43;4.70;99.90
32839;DHT22;19182;41.820;12.808;2023-11-19T05:16:10;4.80;99.90
32839;DHT22;19182;41.820;12.808;2023-11-19T05:18:35;4.70;99.90
32839;DHT22;19182;41.820;12.808;2023-11-19T05:21:01;4.60;99.90
32839;DHT22;19182;41.820;12.808;2023-11-19T05:23:28;4.20;99.90
32839;DHT22;19182;41.820;12.808;2023-11-19T05:25:54;4.20;99.90
32839;DHT22;19182;41.820;12.808;2023-11-19T05:28:20;4.20;99.90
32839;DHT22;19182;41.820;12.808;2023-11-19T05:30:46;4.20;99.90
32839;DHT22;19182;41.820;12.808;2023-11-19T05:33:11;4.40;99.90
32839;DHT22;19182;41.820;12.808;2023-11-19T05:35:37;4.30;99.90
32839;DHT22;19182;41.820;12.808;2023-11-19T05:38:02;4.40;99.90
32839;DHT22;19182;41.820;12.808;2023-11-19T05:40:28;4.40;99.90
32839;DHT22;19182;41.820;12.808;2023-11-19T05:42:54;4.30;99.90
32839;DHT22;19182;41.820;12.808;2023-11-19T05:45:19;4.40;99.90
32839;DHT22;19182;41.820;12.808;2023-11-19T05:50:11;4.50;99.90
32839;DHT22;19182;41.820;12.808;2023-11-19T05:52:36;4.30;99.90
32839;DHT22;19182;41.820;12.808;2023-11-19T05:55:04;4.50;99.90
32839;DHT22;19182;41.820;12.808;2023-11-19T05:57:35;4.50;99.90
32839;DHT22;19182;41.820;12.808;2023-11-19T06:00:00;4.50;99.90
32839;DHT22;19182;41.820;12.808;2023-11-19T06:02:26;4.60;99.90
32839;DHT22;19182;41.820;12.808;2023-11-19T06:04:53;4.80;99.90
32839;DHT22;19182;41.820;12.808;2023-11-19T06:07:19;4.80;99.90
32839;DHT22;19182;41.820;12.808;2023-11-19T06:09:45;4.60;99.90
32839;DHT22;19182;41.820;12.808;2023-11-19T06:12:10;4.70;99.90
32839;DHT22;19182;41.820;12.808;2023-11-19T06:14:36;4.70;99.90
32839;DHT22;19182;41.820;12.808;2023-11-19T06:17:01;4.70;99.90
32839;DHT22;19182;41.820;12.808;2023-11-19T06:19:30;4.80;99.90
32839;DHT22;19182;41.820;12.808;2023-11-19T06:21:56;5.10;99.90
32839;DHT22;19182;41.820;12.808;2023-11-19T06:24:21;5.00;99.90
32839;DHT22;19182;41.820;12.808;2023-11-19T06:26:47;3.10;99.90
32839;DHT22;19182;41.820;12.808;2023-11-19T06:29:13;5.20;99.90
32839;DHT22;19182;41.820;12.808;2023-11-19T06:31:43;6.30;99.90
32839;DHT22;19182;41.820;12.808;2023-11-19T06:34:09;5.40;99.90
32839;DHT22;19182;41.820;12.808;2023-11-19T06:36:35;5.50;99.90
32839;DHT22;19182;41.820;12.808;2023-11-19T06:39:01;5.60;99.90
32839;DHT22;19182;41.820;12.808;2023-11-19T06:41:27;5.70;99.90
32839;DHT22;19182;41.820;12.808;2023-11-19T06:43:54;5.80;99.90
32839;DHT22;19182;41.820;12.808;2023-11-19T06:46:20;6.00;99.90
32839;DHT22;19182;41.820;12.808;2023-11-19T06:48:45;6.00;99.90
32839;DHT22;19182;41.820;12.808;2023-11-19T06:51:12;5.90;99.90
32839;DHT22;19182;41.820;12.808;2023-11-19T06:53:38;5.20;99.90
32839;DHT22;19182;41.820;12.808;2023-11-19T06:56:05;6.10;99.90
32839;DHT22;19182;41.820;12.808;2023-11-19T06:58:36;6.20;99.90
32839;DHT22;19182;41.820;12.808;2023-11-19T07:01:03;6.30;99.90
32839;DHT22;19182;41.820;12.808;2023-11-19T07:03:34;6.50;99.90
32839;DHT22;19182;41.820;12.808;2023-11-19T07:06:01;6.60;99.90
32839;DHT22;19182;41.820;12.808;2023-11-19T07:08:29;6.60;99.90
32839;DHT22;19182;41.820;12.808;2023-11-19T07:10:55;6.70;99.90
32839;DHT22;19182;41.820;12.808;2023-11-19T07:13:21;7.00;99.90
32839;DHT22;19182;41.820;12.808;2023-11-19T07:15:47;7.30;99.90
32839;DHT22;19182;41.820;12.808;2023-11-19T07:18:13;7.50;99.90
32839;DHT22;19182;41.820;12.808;2023-11-19T07:20:39;8.10;99.90
32839;DHT22;19182;41.820;12.808;2023-11-19T07:23:05;9.10;99.90
32839;DHT22;19182;41.820;12.808;2023-11-19T07:25:31;10.00;99.90
32839;DHT22;19182;41.820;12.808;2023-11-19T07:27:57;10.20;99.90
32839;DHT22;19182;41.820;12.808;2023-11-19T07:30:23;10.50;99.90
32839;DHT22;19182;41.820;12.808;2023-11-19T07:32:49;10.60;99.90
32839;DHT22;19182;41.820;12.808;2023-11-19T07:35:15;10.80;99.90
32839;DHT22;19182;41.820;12.808;2023-11-19T07:37:44;11.20;99.90
32839;DHT22;19182;41.820;12.808;2023-11-19T07:40:13;11.20;99.90
32839;DHT22;19182;41.820;12.808;2023-11-19T07:42:38;11.60;99.90
32839;DHT22;19182;41.820;12.808;2023-11-19T07:45:04;11.90;99.90
32839;DHT22;19182;41.820;12.808;2023-11-19T07:47:32;12.10;99.90
32839;DHT22;19182;41.820;12.808;2023-11-19T07:49:59;12.30;99.90
32839;DHT22;19182;41.820;12.808;2023-11-19T07:52:24;12.30;99.90
32839;DHT22;19182;41.820;12.808;2023-11-19T07:54:52;13.20;99.90
32839;DHT22;19182;41.820;12.808;2023-11-19T07:57:18;14.20;99.90
32839;DHT22;19182;41.820;12.808;2023-11-19T07:59:44;15.00;99.90
32839;DHT22;19182;41.820;12.808;2023-11-19T08:02:10;16.40;99.90
32839;DHT22;19182;41.820;12.808;2023-11-19T08:04:36;18.50;99.90
32839;DHT22;19182;41.820;12.808;2023-11-19T08:07:01;19.70;99.90
32839;DHT22;19182;41.820;12.808;2023-11-19T08:09:28;19.70;99.90
32839;DHT22;19182;41.820;12.808;2023-11-19T08:11:55;19.80;99.90
32839;DHT22;19182;41.820;12.808;2023-11-19T08:14:21;19.70;99.90
32839;DHT22;19182;41.820;12.808;2023-11-19T08:16:47;20.00;99.90
32839;DHT22;19182;41.820;12.808;2023-11-19T08:19:13;20.10;99.20
32839;DHT22;19182;41.820;12.808;2023-11-19T08:21:39;20.60;99.90
32839;DHT22;19182;41.820;12.808;2023-11-19T08:24:05;21.40;97.90
32839;DHT22;19182;41.820;12.808;2023-11-19T08:26:31;22.60;94.80
32839;DHT22;19182;41.820;12.808;2023-11-19T08:28:57;21.40;93.70
32839;DHT22;19182;41.820;12.808;2023-11-19T08:31:24;20.70;94.10
32839;DHT22;19182;41.820;12.808;2023-11-19T08:33:51;20.40;94.20
32839;DHT22;19182;41.820;12.808;2023-11-19T08:36:18;20.70;94.80
32839;DHT22;19182;41.820;12.808;2023-11-19T08:38:44;21.30;94.20
32839;DHT22;19182;41.820;12.808;2023-11-19T08:41:10;21.50;93.80
32839;DHT22;19182;41.820;12.808;2023-11-19T08:43:36;22.10;91.10
32839;DHT22;19182;41.820;12.808;2023-11-19T08:46:03;21.70;90.30
32839;DHT22;19182;41.820;12.808;2023-11-19T08:48:29;20.50;93.20
32839;DHT22;19182;41.820;12.808;2023-11-19T08:50:56;20.90;93.40
32839;DHT22;19182;41.820;12.808;2023-11-19T08:53:21;22.70;90.30
32839;DHT22;19182;41.820;12.808;2023-11-19T08:55:47;22.50;84.00
32839;DHT22;19182;41.820;12.808;2023-11-19T08:58:15;21.80;85.80
32839;DHT22;19182;41.820;12.808;2023-11-19T09:00:41;21.30;85.90
32839;DHT22;19182;41.820;12.808;2023-11-19T09:03:08;19.40;90.30
32839;DHT22;19182;41.820;12.808;2023-11-19T09:05:34;19.10;93.00
32839;DHT22;19182;41.820;12.808;2023-11-19T09:08:00;18.10;93.50
32839;DHT22;19182;41.820;12.808;2023-11-19T09:10:25;17.00;94.70
32839;DHT22;19182;41.820;12.808;2023-11-19T09:12:53;16.80;97.10
32839;DHT22;19182;41.820;12.808;2023-11-19T09:15:19;16.40;97.60
32839;DHT22;19182;41.820;12.808;2023-11-19T09:17:44;16.10;98.30
32839;DHT22;19182;41.820;12.808;2023-11-19T09:20:11;16.00;99.90
32839;DHT22;19182;41.820;12.808;2023-11-19T09:22:40;16.10;99.90
32839;DHT22;19182;41.820;12.808;2023-11-19T09:25:05;16.40;99.70
32839;DHT22;19182;41.820;12.808;2023-11-19T09:27:32;16.60;99.50
32839;DHT22;19182;41.820;12.808;2023-11-19T09:29:58;16.60;98.90
32839;DHT22;19182;41.820;12.808;2023-11-19T09:32:28;15.90;99.90
32839;DHT22;19182;41.820;12.808;2023-11-19T09:34:54;15.50;99.90
32839;DHT22;19182;41.820;12.808;2023-11-19T09:37:20;15.80;99.90
32839;DHT22;19182;41.820;12.808;2023-11-19T09:39:46;15.80;99.90
32839;DHT22;19182;41.820;12.808;2023-11-19T09:42:14;15.70;99.90
32839;DHT22;19182;41.820;12.808;2023-11-19T09:44:41;15.40;99.90
32839;DHT22;19182;41.820;12.808;2023-11-19T09:47:09;15.60;99.90
32839;DHT22;19182;41.820;12.808;2023-11-19T09:49:35;15.50;99.90
32839;DHT22;19182;41.820;12.808;2023-11-19T09:52:01;15.40;99.90
32839;DHT22;19182;41.820;12.808;2023-11-19T09:54:28;15.10;99.90
32839;DHT22;19182;41.820;12.808;2023-11-19T09:56:54;15.50;99.90
32839;DHT22;19182;41.820;12.808;2023-11-19T09:59:24;15.90;99.90
32839;DHT22;19182;41.820;12.808;2023-11-19T10:01:50;15.80;99.90
32839;DHT22;19182;41.820;12.808;2023-11-19T10:04:17;15.30;99.90
32839;DHT22;19182;41.820;12.808;2023-11-19T10:06:44;15.20;99.90
32839;DHT22;19182;41.820;12.808;2023-11-19T10:09:11;15.60;99.90
32839;DHT22;19182;41.820;12.808;2023-11-19T10:11:37;15.70;99.90
32839;DHT22;19182;41.820;12.808;2023-11-19T10:14:04;16.00;99.90
32839;DHT22;19182;41.820;12.808;2023-11-19T10:16:30;16.80;99.80
32839;DHT22;19182;41.820;12.808;2023-11-19T10:18:56;17.30;99.20
32839;DHT22;19182;41.820;12.808;2023-11-19T10:21:22;17.40;99.60
32839;DHT22;19182;41.820;12.808;2023-11-19T10:23:49;17.30;99.00
32839;DHT22;19182;41.820;12.808;2023-11-19T10:26:15;17.00;99.80
32839;DHT22;19182;41.820;12.808;2023-11-19T10:28:41;16.90;99.90
32839;DHT22;19182;41.820;12.808;2023-11-19T10:31:12;17.00;99.90
32839;DHT22;19182;41.820;12.808;2023-11-19T10:33:38;14.40;99.60
32839;DHT22;19182;41.820;12.808;2023-11-19T10:36:04;17.30;99.90
32839;DHT22;19182;41.820;12.808;2023-11-19T10:38:30;17.20;99.90
32839;DHT22;19182;41.820;12.808;2023-11-19T10:40:55;19.10;99.90
32839;DHT22;19182;41.820;12.808;2023-11-19T10:43:21;22.90;95.00
32839;DHT22;19182;41.820;12.808;2023-11-19T10:45:51;26.30;83.10
32839;DHT22;19182;41.820;12.808;2023-11-19T10:48:17;27.10;76.40
32839;DHT22;19182;41.820;12.808;2023-11-19T10:50:43;27.30;73.50
32839;DHT22;19182;41.820;12.808;2023-11-19T10:53:11;28.20;73.60
32839;DHT22;19182;41.820;12.808;2023-11-19T10:55:41;27.40;73.80
32839;DHT22;19182;41.820;12.808;2023-11-19T10:58:07;22.60;74.90
32839;DHT22;19182;41.820;12.808;2023-11-19T11:03:16;23.10;87.50
32839;DHT22;19182;41.820;12.808;2023-11-19T11:05:46;21.40;92.20
32839;DHT22;19182;41.820;12.808;2023-11-19T11:08:13;20.00;94.60
32839;DHT22;19182;41.820;12.808;2023-11-19T11:10:39;19.00;96.90
32839;DHT22;19182;41.820;12.808;2023-11-19T11:13:05;18.40;99.90
32839;DHT22;19182;41.820;12.808;2023-11-19T11:15:33;17.60;99.90
32839;DHT22;19182;41.820;12.808;2023-11-19T11:18:02;17.20;99.90
32839;DHT22;19182;41.820;12.808;2023-11-19T11:20:30;17.20;99.90
32839;DHT22;19182;41.820;12.808;2023-11-19T11:25:37;16.80;99.90
32839;DHT22;19182;41.820;12.808;2023-11-19T11:38:39;16.80;99.90
32839;DHT22;19182;41.820;12.808;2023-11-19T11:41:16;16.70;99.90
32839;DHT22;19182;41.820;12.808;2023-11-19T11:43:50;16.50;99.90
32839;DHT22;19182;41.820;12.808;2023-11-19T11:49:03;16.60;99.90
32839;DHT22;19182;41.820;12.808;2023-11-19T11:52:11;16.40;99.90
32839;DHT22;19182;41.820;12.808;2023-11-19T11:56:43;16.10;99.90
32839;DHT22;19182;41.820;12.808;2023-11-19T11:59:25;16.10;99.90
32839;DHT22;19182;41.820;12.808;2023-11-19T12:01:58;16.10;99.90
32839;DHT22;19182;41.820;12.808;2023-11-19T12:04:26;16.20;99.90
32839;DHT22;19182;41.820;12.808;2023-11-19T12:07:06;16.10;99.90
32839;DHT22;19182;41.820;12.808;2023-11-19T12:09:32;16.20;99.90
32839;DHT22;19182;41.820;12.808;2023-11-19T12:20:06;16.20;99.90
32839;DHT22;19182;41.820;12.808;2023-11-19T12:22:37;16.10;99.90
32839;DHT22;19182;41.820;12.808;2023-11-19T12:25:04;16.10;99.90
32839;DHT22;19182;41.820;12.808;2023-11-19T12:27:30;16.20;99.90
32839;DHT22;19182;41.820;12.808;2023-11-19T12:29:56;16.10;99.90
32839;DHT22;19182;41.820;12.808;2023-11-19T12:32:22;15.80;99.90
32839;DHT22;19182;41.820;12.808;2023-11-19T12:34:47;15.70;99.90
32839;DHT22;19182;41.820;12.808;2023-11-19T12:37:13;15.80;99.90
32839;DHT22;19182;41.820;12.808;2023-11-19T12:39:39;15.80;99.90
32839;DHT22;19182;41.820;12.808;2023-11-19T12:42:05;15.70;99.90
32839;DHT22;19182;41.820;12.808;2023-11-19T12:44:32;15.70;99.90
32839;DHT22;19182;41.820;12.808;2023-11-19T12:47:00;15.80;99.90
32839;DHT22;19182;41.820;12.808;2023-11-19T12:49:26;15.80;99.90
32839;DHT22;19182;41.820;12.808;2023-11-19T12:51:52;15.80;99.90
32839;DHT22;19182;41.820;12.808;2023-11-19T12:54:18;16.00;99.90
32839;DHT22;19182;41.820;12.808;2023-11-19T12:56:55;16.00;99.90
32839;DHT22;19182;41.820;12.808;2023-11-19T12:59:21;17.00;99.90
32839;DHT22;19182;41.820;12.808;2023-11-19T13:01:57;16.30;99.90
32839;DHT22;19182;41.820;12.808;2023-11-19T13:04:22;16.30;99.90
32839;DHT22;19182;41.820;12.808;2023-11-19T13:06:52;16.50;99.90
32839;DHT22;19182;41.820;12.808;2023-11-19T13:09:21;16.30;99.90
32839;DHT22;19182;41.820;12.808;2023-11-19T13:11:47;16.40;99.90
32839;DHT22;19182;41.820;12.808;2023-11-19T13:14:13;16.30;99.90
32839;DHT22;19182;41.820;12.808;2023-11-19T13:16:39;16.20;99.90
32839;DHT22;19182;41.820;12.808;2023-11-19T13:19:05;16.30;99.90
32839;DHT22;19182;41.820;12.808;2023-11-19T13:21:31;16.20;99.90
32839;DHT22;19182;41.820;12.808;2023-11-19T13:23:56;16.20;99.90
32839;DHT22;19182;41.820;12.808;2023-11-19T13:26:22;16.20;99.90
32839;DHT22;19182;41.820;12.808;2023-11-19T13:28:48;16.00;99.90
32839;DHT22;19182;41.820;12.808;2023-11-19T13:31:31;16.00;99.90
32839;DHT22;19182;41.820;12.808;2023-11-19T13:33:58;15.90;99.90
32839;DHT22;19182;41.820;12.808;2023-11-19T13:36:24;16.00;99.90
32839;DHT22;19182;41.820;12.808;2023-11-19T13:38:51;15.90;99.90
32839;DHT22;19182;41.820;12.808;2023-11-19T13:41:17;16.20;99.90
32839;DHT22;19182;41.820;12.808;2023-11-19T13:43:42;16.10;99.90
32839;DHT22;19182;41.820;12.808;2023-11-19T13:46:08;15.90;99.90
32839;DHT22;19182;41.820;12.808;2023-11-19T13:48:36;16.00;99.90
32839;DHT22;19182;41.820;12.808;2023-11-19T13:51:02;15.90;99.90
32839;DHT22;19182;41.820;12.808;2023-11-19T13:53:28;16.10;99.90
32839;DHT22;19182;41.820;12.808;2023-11-19T13:55:53;16.20;99.90
32839;DHT22;19182;41.820;12.808;2023-11-19T13:58:19;16.20;99.90
32839;DHT22;19182;41.820;12.808;2023-11-19T14:00:44;16.20;99.90
32839;DHT22;19182;41.820;12.808;2023-11-19T14:03:10;16.20;99.90
32839;DHT22;19182;41.820;12.808;2023-11-19T14:05:36;16.20;99.90
32839;DHT22;19182;41.820;12.808;2023-11-19T14:08:04;16.00;99.90
32839;DHT22;19182;41.820;12.808;2023-11-19T14:10:39;16.00;99.90
32839;DHT22;19182;41.820;12.808;2023-11-19T14:13:08;16.00;99.90
32839;DHT22;19182;41.820;12.808;2023-11-19T14:15:37;16.00;99.90
32839;DHT22;19182;41.820;12.808;2023-11-19T14:18:03;16.10;99.90
32839;DHT22;19182;41.820;12.808;2023-11-19T14:20:29;16.00;99.90
32839;DHT22;19182;41.820;12.808;2023-11-19T14:22:55;16.00;99.90
32839;DHT22;19182;41.820;12.808;2023-11-19T14:25:21;15.80;99.90
32839;DHT22;19182;41.820;12.808;2023-11-19T14:27:48;15.80;99.90
32839;DHT22;19182;41.820;12.808;2023-11-19T14:30:14;15.80;99.90
32839;DHT22;19182;41.820;12.808;2023-11-19T14:32:40;15.80;99.90
32839;DHT22;19182;41.820;12.808;2023-11-19T14:35:07;15.80;99.90
32839;DHT22;19182;41.820;12.808;2023-11-19T14:37:38;15.90;99.90
32839;DHT22;19182;41.820;12.808;2023-11-19T14:40:05;15.80;99.90
32839;DHT22;19182;41.820;12.808;2023-11-19T14:42:31;15.70;99.90
32839;DHT22;19182;41.820;12.808;2023-11-19T14:44:57;15.60;99.90
32839;DHT22;19182;41.820;12.808;2023-11-19T14:47:23;15.50;99.90
32839;DHT22;19182;41.820;12.808;2023-11-19T14:49:49;15.40;99.90
32839;DHT22;19182;41.820;12.808;2023-11-19T14:52:15;15.30;99.90
32839;DHT22;19182;41.820;12.808;2023-11-19T14:54:40;15.10;99.90
32839;DHT22;19182;41.820;12.808;2023-11-19T14:57:06;15.10;99.90
32839;DHT22;19182;41.820;12.808;2023-11-19T14:59:35;15.00;99.90
32839;DHT22;19182;41.820;12.808;2023-11-19T15:02:03;14.90;99.90
32839;DHT22;19182;41.820;12.808;2023-11-19T15:04:28;14.90;99.90
32839;DHT22;19182;41.820;12.808;2023-11-19T15:06:58;14.70;99.90
32839;DHT22;19182;41.820;12.808;2023-11-19T15:09:24;14.70;99.90
32839;DHT22;19182;41.820;12.808;2023-11-19T15:11:53;14.60;99.90
32839;DHT22;19182;41.820;12.808;2023-11-19T15:14:19;14.60;99.90
32839;DHT22;19182;41.820;12.808;2023-11-19T15:16:45;14.50;99.90
32839;DHT22;19182;41.820;12.808;2023-11-19T15:19:11;14.40;99.90
32839;DHT22;19182;41.820;12.808;2023-11-19T15:21:38;14.40;99.90
32839;DHT22;19182;41.820;12.808;2023-11-19T15:24:03;14.40;99.90
32839;DHT22;19182;41.820;12.808;2023-11-19T15:26:33;14.30;99.90
32839;DHT22;19182;41.820;12.808;2023-11-19T15:28:58;14.30;99.90
32839;DHT22;19182;41.820;12.808;2023-11-19T15:31:25;14.40;99.90
32839;DHT22;19182;41.820;12.808;2023-11-19T15:33:51;15.80;99.90
32839;DHT22;19182;41.820;12.808;2023-11-19T15:36:17;14.20;99.90
32839;DHT22;19182;41.820;12.808;2023-11-19T15:38:43;14.10;99.90
32839;DHT22;19182;41.820;12.808;2023-11-19T15:41:09;13.90;99.90
32839;DHT22;19182;41.820;12.808;2023-11-19T15:43:35;13.90;99.90
32839;DHT22;19182;41.820;12.808;2023-11-19T15:46:01;13.80;99.90
32839;DHT22;19182;41.820;12.808;2023-11-19T15:48:27;9.90;99.90
32839;DHT22;19182;41.820;12.808;2023-11-19T15:50:53;13.60;99.90